Flushing, NY (11355)

3:20 PM EDT on July 29, 2016 (GMT -0400)
Cedar Grove Cemetery, Flushing | | Change Station

Elev 49 ft 40.74 °N, 73.83 °W | Updated 29 minutes ago

Scattered Clouds
Scattered Clouds
85.1 °F
Feels Like 90 °F
N
5.8
Wind Variable Wind from NW

Today
High -- | Low -- °F
--% Chance of Precip.
Yesterday
High -- | Low -- °F
Precip. -- in
Pressure 29.83 in
Visibility 10.0 miles
Clouds Few 2700 ft
Scattered Clouds 5000 ft
Heat Index 90 °F
Dew Point 70 °F
Humidity 61%
Rainfall 1.18 in
Snow Depth Not available.
5:49 AM 8:13 PM
Waning Crescent, 20% visible
METAR KLGA 291851Z 05008KT 10SM FEW027 SCT050 27/21 A2983 RMK AO2 SLP101 T02720206
Pressure 29.83 in
Visibility 10.0 miles
Clouds Few 2700 ft
Scattered Clouds 5000 ft
Heat Index 90 °F
Dew Point 70 °F
Humidity 61%
Rainfall 1.18 in
Snow Depth Not available.
5:49 AM 8:13 PM
Waning Crescent, 20% visible
METAR KLGA 291851Z 05008KT 10SM FEW027 SCT050 27/21 A2983 RMK AO2 SLP101 T02720206

10-Day Weather Forecast

Almanac

Astronomy

Jul. 29, 2016 Rise Set
Actual Time
Civil Twilight
Nautical Twilight
Astronomical Twilight
Moon
Length of Visible Light
Length of Day
Tomorrow will be .
, % of the Moon is Illuminated

Today's Extremes

State Highs State Lows

Community

WunderPhotos

Upload Photos

1,928,396 photos uploaded!

WunderBlog® & News

Nearby

Air Quality

  Air Quality AQ Index Pollutant
Not available.

Snow Depth

Station Depth Elevation

Earthquake Activity

City Distance Mag. Time & Date
Minimum magnitude displayed is 2.5.

Coastal Water Temperatures

Place Temperature

Stations

Nearby Weather Stations

Station Location Temp. Windchill Dew Point Humidity Wind Precip. Elev Updated Type
                   

Watches & Warnings

There are currently no watches in effect.